sensor_id;sensor_type;location;lat;lon;timestamp;temperature;humidity
24260;DHT22;12384;48.112;18.418;2023-04-03T00:01:23;4.50;49.60
24260;DHT22;12384;48.112;18.418;2023-04-03T00:03:51;4.40;49.50
24260;DHT22;12384;48.112;18.418;2023-04-03T00:06:20;4.40;49.60
24260;DHT22;12384;48.112;18.418;2023-04-03T00:08:49;4.40;49.60
24260;DHT22;12384;48.112;18.418;2023-04-03T00:11:18;4.40;49.60
24260;DHT22;12384;48.112;18.418;2023-04-03T00:13:47;4.30;49.60
24260;DHT22;12384;48.112;18.418;2023-04-03T00:16:16;4.30;49.60
24260;DHT22;12384;48.112;18.418;2023-04-03T00:18:45;4.20;49.70
24260;DHT22;12384;48.112;18.418;2023-04-03T00:21:14;4.10;50.20
24260;DHT22;12384;48.112;18.418;2023-04-03T00:23:43;4.10;49.80
24260;DHT22;12384;48.112;18.418;2023-04-03T00:26:11;4.00;49.80
24260;DHT22;12384;48.112;18.418;2023-04-03T00:28:40;3.90;49.90
24260;DHT22;12384;48.112;18.418;2023-04-03T00:31:09;3.90;50.00
24260;DHT22;12384;48.112;18.418;2023-04-03T00:33:39;3.80;50.10
24260;DHT22;12384;48.112;18.418;2023-04-03T00:36:08;3.80;50.20
24260;DHT22;12384;48.112;18.418;2023-04-03T00:38:38;3.70;50.30
24260;DHT22;12384;48.112;18.418;2023-04-03T00:41:07;3.70;50.40
24260;DHT22;12384;48.112;18.418;2023-04-03T00:43:36;3.60;50.40
24260;DHT22;12384;48.112;18.418;2023-04-03T00:46:04;3.60;50.60
24260;DHT22;12384;48.112;18.418;2023-04-03T00:48:36;3.50;50.70
24260;DHT22;12384;48.112;18.418;2023-04-03T00:51:11;3.50;50.90
24260;DHT22;12384;48.112;18.418;2023-04-03T00:53:44;3.50;51.00
24260;DHT22;12384;48.112;18.418;2023-04-03T00:56:16;3.40;51.00
24260;DHT22;12384;48.112;18.418;2023-04-03T00:58:49;3.40;51.20
24260;DHT22;12384;48.112;18.418;2023-04-03T01:01:22;3.30;51.30
24260;DHT22;12384;48.112;18.418;2023-04-03T01:03:52;3.30;51.40
24260;DHT22;12384;48.112;18.418;2023-04-03T01:06:26;3.30;51.60
24260;DHT22;12384;48.112;18.418;2023-04-03T01:09:02;3.20;51.60
24260;DHT22;12384;48.112;18.418;2023-04-03T01:11:32;3.20;51.60
24260;DHT22;12384;48.112;18.418;2023-04-03T01:14:02;3.10;51.70
24260;DHT22;12384;48.112;18.418;2023-04-03T01:16:30;3.10;51.80
24260;DHT22;12384;48.112;18.418;2023-04-03T01:19:00;3.10;52.00
24260;DHT22;12384;48.112;18.418;2023-04-03T01:24:36;3.00;52.00
24260;DHT22;12384;48.112;18.418;2023-04-03T01:27:10;3.00;52.20
24260;DHT22;12384;48.112;18.418;2023-04-03T01:29:40;3.00;52.20
24260;DHT22;12384;48.112;18.418;2023-04-03T01:32:12;2.90;52.30
24260;DHT22;12384;48.112;18.418;2023-04-03T01:34:41;2.90;52.50
24260;DHT22;12384;48.112;18.418;2023-04-03T01:37:10;2.90;52.60
24260;DHT22;12384;48.112;18.418;2023-04-03T01:39:39;2.80;52.50
24260;DHT22;12384;48.112;18.418;2023-04-03T01:42:08;2.80;52.50
24260;DHT22;12384;48.112;18.418;2023-04-03T01:44:39;2.80;52.60
24260;DHT22;12384;48.112;18.418;2023-04-03T01:47:08;2.70;52.70
24260;DHT22;12384;48.112;18.418;2023-04-03T01:49:40;2.70;52.90
24260;DHT22;12384;48.112;18.418;2023-04-03T01:52:09;2.70;53.00
24260;DHT22;12384;48.112;18.418;2023-04-03T01:54:38;2.60;53.00
24260;DHT22;12384;48.112;18.418;2023-04-03T01:57:06;2.60;53.10
24260;DHT22;12384;48.112;18.418;2023-04-03T01:59:35;2.50;53.00
24260;DHT22;12384;48.112;18.418;2023-04-03T02:02:04;2.50;53.10
24260;DHT22;12384;48.112;18.418;2023-04-03T02:04:33;2.50;53.20
24260;DHT22;12384;48.112;18.418;2023-04-03T02:07:02;2.40;53.30
24260;DHT22;12384;48.112;18.418;2023-04-03T02:09:31;2.40;53.40
24260;DHT22;12384;48.112;18.418;2023-04-03T02:11:59;2.30;53.40
24260;DHT22;12384;48.112;18.418;2023-04-03T02:14:30;2.30;53.60
24260;DHT22;12384;48.112;18.418;2023-04-03T02:17:01;2.20;53.60
24260;DHT22;12384;48.112;18.418;2023-04-03T02:19:32;2.20;53.80
24260;DHT22;12384;48.112;18.418;2023-04-03T02:22:01;2.20;54.00
24260;DHT22;12384;48.112;18.418;2023-04-03T02:24:30;2.20;54.10
24260;DHT22;12384;48.112;18.418;2023-04-03T02:26:58;2.10;54.10
24260;DHT22;12384;48.112;18.418;2023-04-03T02:29:27;2.10;54.20
24260;DHT22;12384;48.112;18.418;2023-04-03T02:31:56;2.10;54.30
24260;DHT22;12384;48.112;18.418;2023-04-03T02:34:24;2.00;54.30
24260;DHT22;12384;48.112;18.418;2023-04-03T02:36:53;2.00;54.40
24260;DHT22;12384;48.112;18.418;2023-04-03T02:39:23;2.00;54.50
24260;DHT22;12384;48.112;18.418;2023-04-03T02:41:52;1.90;54.50
24260;DHT22;12384;48.112;18.418;2023-04-03T02:44:23;1.90;55.30
24260;DHT22;12384;48.112;18.418;2023-04-03T02:46:52;1.90;54.80
24260;DHT22;12384;48.112;18.418;2023-04-03T02:49:21;1.80;54.80
24260;DHT22;12384;48.112;18.418;2023-04-03T02:51:50;1.80;54.90
24260;DHT22;12384;48.112;18.418;2023-04-03T02:54:19;1.80;55.10
24260;DHT22;12384;48.112;18.418;2023-04-03T02:56:54;1.70;55.10
24260;DHT22;12384;48.112;18.418;2023-04-03T02:59:23;1.70;55.30
24260;DHT22;12384;48.112;18.418;2023-04-03T03:01:52;1.70;55.40
24260;DHT22;12384;48.112;18.418;2023-04-03T03:04:20;1.70;55.50
24260;DHT22;12384;48.112;18.418;2023-04-03T03:06:49;1.70;55.70
24260;DHT22;12384;48.112;18.418;2023-04-03T03:09:17;1.70;55.80
24260;DHT22;12384;48.112;18.418;2023-04-03T03:11:46;1.70;55.90
24260;DHT22;12384;48.112;18.418;2023-04-03T03:14:16;1.60;56.00
24260;DHT22;12384;48.112;18.418;2023-04-03T03:16:44;1.60;56.00
24260;DHT22;12384;48.112;18.418;2023-04-03T03:19:13;1.60;56.00
24260;DHT22;12384;48.112;18.418;2023-04-03T03:21:41;1.60;56.20
24260;DHT22;12384;48.112;18.418;2023-04-03T03:24:10;1.60;56.20
24260;DHT22;12384;48.112;18.418;2023-04-03T03:26:39;1.50;56.20
24260;DHT22;12384;48.112;18.418;2023-04-03T03:29:07;1.50;56.30
24260;DHT22;12384;48.112;18.418;2023-04-03T03:31:38;1.50;57.00
24260;DHT22;12384;48.112;18.418;2023-04-03T03:34:07;1.50;56.70
24260;DHT22;12384;48.112;18.418;2023-04-03T03:36:35;1.50;56.80
24260;DHT22;12384;48.112;18.418;2023-04-03T03:39:03;1.50;56.90
24260;DHT22;12384;48.112;18.418;2023-04-03T03:41:32;1.50;56.90
24260;DHT22;12384;48.112;18.418;2023-04-03T03:44:01;1.50;57.00
24260;DHT22;12384;48.112;18.418;2023-04-03T03:46:31;1.40;57.00
24260;DHT22;12384;48.112;18.418;2023-04-03T03:49:01;1.40;57.10
24260;DHT22;12384;48.112;18.418;2023-04-03T03:51:29;1.40;57.20
24260;DHT22;12384;48.112;18.418;2023-04-03T03:53:58;1.40;57.30
24260;DHT22;12384;48.112;18.418;2023-04-03T03:56:26;1.40;57.40
24260;DHT22;12384;48.112;18.418;2023-04-03T03:58:55;1.40;57.50
24260;DHT22;12384;48.112;18.418;2023-04-03T04:01:24;1.40;57.70
24260;DHT22;12384;48.112;18.418;2023-04-03T04:03:53;1.40;57.80
24260;DHT22;12384;48.112;18.418;2023-04-03T04:06:27;1.40;57.80
24260;DHT22;12384;48.112;18.418;2023-04-03T04:09:00;1.40;58.00
24260;DHT22;12384;48.112;18.418;2023-04-03T04:11:29;1.40;58.10
24260;DHT22;12384;48.112;18.418;2023-04-03T04:14:00;1.50;58.30
24260;DHT22;12384;48.112;18.418;2023-04-03T04:16:30;1.50;58.40
24260;DHT22;12384;48.112;18.418;2023-04-03T04:19:03;1.50;58.50
24260;DHT22;12384;48.112;18.418;2023-04-03T04:21:37;1.60;58.60
24260;DHT22;12384;48.112;18.418;2023-04-03T04:24:07;1.60;58.80
24260;DHT22;12384;48.112;18.418;2023-04-03T04:26:37;1.60;58.90
24260;DHT22;12384;48.112;18.418;2023-04-03T04:29:09;1.60;59.00
24260;DHT22;12384;48.112;18.418;2023-04-03T04:31:38;1.60;59.10
24260;DHT22;12384;48.112;18.418;2023-04-03T04:34:07;1.70;59.30
24260;DHT22;12384;48.112;18.418;2023-04-03T04:36:38;1.70;59.30
24260;DHT22;12384;48.112;18.418;2023-04-03T04:39:07;1.70;59.50
24260;DHT22;12384;48.112;18.418;2023-04-03T04:41:36;1.80;59.80
24260;DHT22;12384;48.112;18.418;2023-04-03T04:44:05;2.00;60.70
24260;DHT22;12384;48.112;18.418;2023-04-03T04:46:36;2.20;61.90
24260;DHT22;12384;48.112;18.418;2023-04-03T04:49:06;2.60;63.10
24260;DHT22;12384;48.112;18.418;2023-04-03T04:51:35;3.10;64.10
24260;DHT22;12384;48.112;18.418;2023-04-03T04:54:20;3.50;64.30
24260;DHT22;12384;48.112;18.418;2023-04-03T04:56:49;4.10;64.60
24260;DHT22;12384;48.112;18.418;2023-04-03T04:59:18;4.50;64.40
24260;DHT22;12384;48.112;18.418;2023-04-03T05:01:49;5.00;64.40
24260;DHT22;12384;48.112;18.418;2023-04-03T05:04:18;5.50;64.10
24260;DHT22;12384;48.112;18.418;2023-04-03T05:06:51;6.00;63.40
24260;DHT22;12384;48.112;18.418;2023-04-03T05:09:25;6.50;62.80
24260;DHT22;12384;48.112;18.418;2023-04-03T05:11:55;7.00;62.00
24260;DHT22;12384;48.112;18.418;2023-04-03T05:14:27;7.60;61.30
24260;DHT22;12384;48.112;18.418;2023-04-03T05:17:01;8.10;60.10
24260;DHT22;12384;48.112;18.418;2023-04-03T05:19:33;8.60;59.10
24260;DHT22;12384;48.112;18.418;2023-04-03T05:22:02;9.10;58.00
24260;DHT22;12384;48.112;18.418;2023-04-03T05:24:32;9.50;56.90
24260;DHT22;12384;48.112;18.418;2023-04-03T05:27:02;9.90;56.20
24260;DHT22;12384;48.112;18.418;2023-04-03T05:29:33;10.20;54.50
24260;DHT22;12384;48.112;18.418;2023-04-03T05:32:03;10.60;53.90
24260;DHT22;12384;48.112;18.418;2023-04-03T05:34:32;11.00;52.90
24260;DHT22;12384;48.112;18.418;2023-04-03T05:37:02;11.30;52.10
24260;DHT22;12384;48.112;18.418;2023-04-03T05:39:34;11.60;51.20
24260;DHT22;12384;48.112;18.418;2023-04-03T05:42:04;11.90;50.50
24260;DHT22;12384;48.112;18.418;2023-04-03T05:44:33;12.20;49.90
24260;DHT22;12384;48.112;18.418;2023-04-03T05:47:02;12.50;49.20
24260;DHT22;12384;48.112;18.418;2023-04-03T05:49:31;12.90;48.10
24260;DHT22;12384;48.112;18.418;2023-04-03T05:52:00;13.10;46.80
24260;DHT22;12384;48.112;18.418;2023-04-03T05:54:31;13.40;46.40
24260;DHT22;12384;48.112;18.418;2023-04-03T05:57:08;13.60;45.60
24260;DHT22;12384;48.112;18.418;2023-04-03T05:59:36;13.90;45.20
24260;DHT22;12384;48.112;18.418;2023-04-03T06:02:05;14.20;44.60
24260;DHT22;12384;48.112;18.418;2023-04-03T06:04:35;14.50;44.00
24260;DHT22;12384;48.112;18.418;2023-04-03T06:07:05;14.80;43.00
24260;DHT22;12384;48.112;18.418;2023-04-03T06:09:34;15.00;42.10
24260;DHT22;12384;48.112;18.418;2023-04-03T06:12:04;15.20;41.50
24260;DHT22;12384;48.112;18.418;2023-04-03T06:14:34;15.50;41.10
24260;DHT22;12384;48.112;18.418;2023-04-03T06:17:03;15.70;40.30
24260;DHT22;12384;48.112;18.418;2023-04-03T06:19:33;16.00;39.60
24260;DHT22;12384;48.112;18.418;2023-04-03T06:22:02;16.30;38.40
24260;DHT22;12384;48.112;18.418;2023-04-03T06:24:31;16.50;37.90
24260;DHT22;12384;48.112;18.418;2023-04-03T06:26:59;16.70;37.50
24260;DHT22;12384;48.112;18.418;2023-04-03T06:29:28;16.90;37.00
24260;DHT22;12384;48.112;18.418;2023-04-03T06:31:58;17.20;36.20
24260;DHT22;12384;48.112;18.418;2023-04-03T06:34:26;17.40;33.70
24260;DHT22;12384;48.112;18.418;2023-04-03T06:36:54;17.50;33.70
24260;DHT22;12384;48.112;18.418;2023-04-03T06:39:23;17.70;34.30
24260;DHT22;12384;48.112;18.418;2023-04-03T06:41:52;17.90;33.40
24260;DHT22;12384;48.112;18.418;2023-04-03T06:44:28;18.00;32.40
24260;DHT22;12384;48.112;18.418;2023-04-03T06:46:58;17.90;31.50
24260;DHT22;12384;48.112;18.418;2023-04-03T06:49:27;17.60;30.10
24260;DHT22;12384;48.112;18.418;2023-04-03T06:51:56;17.10;29.90
24260;DHT22;12384;48.112;18.418;2023-04-03T06:54:26;16.40;30.20
24260;DHT22;12384;48.112;18.418;2023-04-03T06:56:55;15.90;30.10
24260;DHT22;12384;48.112;18.418;2023-04-03T06:59:23;15.40;30.50
24260;DHT22;12384;48.112;18.418;2023-04-03T07:01:52;15.00;30.80
24260;DHT22;12384;48.112;18.418;2023-04-03T07:04:22;14.70;31.20
24260;DHT22;12384;48.112;18.418;2023-04-03T07:06:50;14.50;31.30
24260;DHT22;12384;48.112;18.418;2023-04-03T07:09:19;14.30;31.70
24260;DHT22;12384;48.112;18.418;2023-04-03T07:11:48;14.00;31.80
24260;DHT22;12384;48.112;18.418;2023-04-03T07:14:17;13.70;31.60
24260;DHT22;12384;48.112;18.418;2023-04-03T07:16:45;13.50;31.50
24260;DHT22;12384;48.112;18.418;2023-04-03T07:19:14;13.10;31.70
24260;DHT22;12384;48.112;18.418;2023-04-03T07:21:43;12.80;32.10
24260;DHT22;12384;48.112;18.418;2023-04-03T07:24:12;12.70;32.60
24260;DHT22;12384;48.112;18.418;2023-04-03T07:26:43;12.50;32.40
24260;DHT22;12384;48.112;18.418;2023-04-03T07:29:12;12.30;32.50
24260;DHT22;12384;48.112;18.418;2023-04-03T07:31:42;12.20;32.40
24260;DHT22;12384;48.112;18.418;2023-04-03T07:34:11;12.10;32.40
24260;DHT22;12384;48.112;18.418;2023-04-03T07:36:40;12.00;32.40
24260;DHT22;12384;48.112;18.418;2023-04-03T07:39:10;12.00;32.80
24260;DHT22;12384;48.112;18.418;2023-04-03T07:41:39;12.10;33.30
24260;DHT22;12384;48.112;18.418;2023-04-03T07:44:07;12.30;33.70
24260;DHT22;12384;48.112;18.418;2023-04-03T07:46:37;12.80;34.90
24260;DHT22;12384;48.112;18.418;2023-04-03T07:49:05;13.50;35.40
24260;DHT22;12384;48.112;18.418;2023-04-03T07:51:34;14.30;34.00
24260;DHT22;12384;48.112;18.418;2023-04-03T07:54:03;15.10;32.60
24260;DHT22;12384;48.112;18.418;2023-04-03T07:56:33;15.70;30.30
24260;DHT22;12384;48.112;18.418;2023-04-03T07:59:02;16.10;30.00
24260;DHT22;12384;48.112;18.418;2023-04-03T08:01:30;16.40;29.30
24260;DHT22;12384;48.112;18.418;2023-04-03T08:04:01;16.60;29.70
24260;DHT22;12384;48.112;18.418;2023-04-03T08:06:31;17.10;30.00
24260;DHT22;12384;48.112;18.418;2023-04-03T08:09:13;17.60;29.60
24260;DHT22;12384;48.112;18.418;2023-04-03T08:11:43;18.10;29.10
24260;DHT22;12384;48.112;18.418;2023-04-03T08:14:12;18.60;28.60
24260;DHT22;12384;48.112;18.418;2023-04-03T08:16:45;18.90;28.20
24260;DHT22;12384;48.112;18.418;2023-04-03T08:19:15;19.30;28.10
24260;DHT22;12384;48.112;18.418;2023-04-03T08:21:53;19.70;28.00
24260;DHT22;12384;48.112;18.418;2023-04-03T08:24:22;20.00;27.60
24260;DHT22;12384;48.112;18.418;2023-04-03T08:26:52;20.40;27.30
24260;DHT22;12384;48.112;18.418;2023-04-03T08:29:20;20.60;26.70
24260;DHT22;12384;48.112;18.418;2023-04-03T08:31:49;20.80;26.80
24260;DHT22;12384;48.112;18.418;2023-04-03T08:34:18;21.00;26.60
24260;DHT22;12384;48.112;18.418;2023-04-03T08:36:47;21.20;26.30
24260;DHT22;12384;48.112;18.418;2023-04-03T08:39:17;21.30;26.00
24260;DHT22;12384;48.112;18.418;2023-04-03T08:41:46;21.40;26.30
24260;DHT22;12384;48.112;18.418;2023-04-03T08:44:21;21.60;26.30
24260;DHT22;12384;48.112;18.418;2023-04-03T08:47:02;21.90;26.30
24260;DHT22;12384;48.112;18.418;2023-04-03T08:49:35;22.20;26.50
24260;DHT22;12384;48.112;18.418;2023-04-03T08:52:08;22.40;25.00
24260;DHT22;12384;48.112;18.418;2023-04-03T08:54:47;22.50;24.70
24260;DHT22;12384;48.112;18.418;2023-04-03T08:57:18;22.50;24.40
24260;DHT22;12384;48.112;18.418;2023-04-03T08:59:49;22.40;23.50
24260;DHT22;12384;48.112;18.418;2023-04-03T09:02:25;22.30;23.70
24260;DHT22;12384;48.112;18.418;2023-04-03T09:04:57;22.30;24.10
24260;DHT22;12384;48.112;18.418;2023-04-03T09:07:33;22.20;24.30
24260;DHT22;12384;48.112;18.418;2023-04-03T09:10:05;22.20;24.30
24260;DHT22;12384;48.112;18.418;2023-04-03T09:12:37;22.10;24.30
24260;DHT22;12384;48.112;18.418;2023-04-03T09:15:17;22.20;24.50
24260;DHT22;12384;48.112;18.418;2023-04-03T09:18:06;22.20;24.10
24260;DHT22;12384;48.112;18.418;2023-04-03T09:20:44;22.30;24.00
24260;DHT22;12384;48.112;18.418;2023-04-03T09:23:20;22.20;23.80
24260;DHT22;12384;48.112;18.418;2023-04-03T09:25:54;22.20;24.20
24260;DHT22;12384;48.112;18.418;2023-04-03T09:28:25;22.20;24.10
24260;DHT22;12384;48.112;18.418;2023-04-03T09:30:56;22.30;23.90
24260;DHT22;12384;48.112;18.418;2023-04-03T09:33:24;22.30;23.60
24260;DHT22;12384;48.112;18.418;2023-04-03T09:35:53;22.30;23.70
24260;DHT22;12384;48.112;18.418;2023-04-03T09:38:22;22.30;24.10
24260;DHT22;12384;48.112;18.418;2023-04-03T09:41:04;22.40;23.90
24260;DHT22;12384;48.112;18.418;2023-04-03T09:43:34;22.50;23.60
24260;DHT22;12384;48.112;18.418;2023-04-03T09:46:23;22.40;23.60
24260;DHT22;12384;48.112;18.418;2023-04-03T09:48:57;22.50;23.20
24260;DHT22;12384;48.112;18.418;2023-04-03T09:51:34;22.40;23.30
24260;DHT22;12384;48.112;18.418;2023-04-03T09:54:31;22.40;23.30
24260;DHT22;12384;48.112;18.418;2023-04-03T09:57:03;22.40;23.30
24260;DHT22;12384;48.112;18.418;2023-04-03T09:59:33;22.20;23.30
24260;DHT22;12384;48.112;18.418;2023-04-03T10:02:23;22.20;24.10
24260;DHT22;12384;48.112;18.418;2023-04-03T10:04:57;22.30;23.60
24260;DHT22;12384;48.112;18.418;2023-04-03T10:07:34;22.30;23.80
24260;DHT22;12384;48.112;18.418;2023-04-03T10:10:18;22.50;23.60
24260;DHT22;12384;48.112;18.418;2023-04-03T10:12:47;22.60;23.40
24260;DHT22;12384;48.112;18.418;2023-04-03T10:15:17;22.60;23.20
24260;DHT22;12384;48.112;18.418;2023-04-03T10:17:57;22.60;23.30
24260;DHT22;12384;48.112;18.418;2023-04-03T10:20:44;22.70;23.20
24260;DHT22;12384;48.112;18.418;2023-04-03T10:23:21;22.80;23.00
24260;DHT22;12384;48.112;18.418;2023-04-03T10:26:00;22.80;23.50
24260;DHT22;12384;48.112;18.418;2023-04-03T10:28:38;22.80;23.10
24260;DHT22;12384;48.112;18.418;2023-04-03T10:31:14;22.70;22.90
24260;DHT22;12384;48.112;18.418;2023-04-03T10:33:56;22.60;22.80
24260;DHT22;12384;48.112;18.418;2023-04-03T10:36:36;22.60;22.60
24260;DHT22;12384;48.112;18.418;2023-04-03T10:39:16;22.50;22.90
24260;DHT22;12384;48.112;18.418;2023-04-03T10:41:56;22.50;22.60
24260;DHT22;12384;48.112;18.418;2023-04-03T10:44:56;22.30;22.40
24260;DHT22;12384;48.112;18.418;2023-04-03T10:47:32;22.20;22.80
24260;DHT22;12384;48.112;18.418;2023-04-03T10:50:25;22.00;22.80
24260;DHT22;12384;48.112;18.418;2023-04-03T10:53:00;21.80;23.10
24260;DHT22;12384;48.112;18.418;2023-04-03T10:55:35;21.80;22.90
24260;DHT22;12384;48.112;18.418;2023-04-03T10:58:06;21.80;23.10
24260;DHT22;12384;48.112;18.418;2023-04-03T11:00:39;21.80;23.10
24260;DHT22;12384;48.112;18.418;2023-04-03T11:03:13;21.80;23.30
24260;DHT22;12384;48.112;18.418;2023-04-03T11:05:47;21.90;22.80
24260;DHT22;12384;48.112;18.418;2023-04-03T11:08:25;21.80;22.80
24260;DHT22;12384;48.112;18.418;2023-04-03T11:10:58;21.80;22.90
24260;DHT22;12384;48.112;18.418;2023-04-03T11:13:33;21.70;23.10
24260;DHT22;12384;48.112;18.418;2023-04-03T11:16:03;21.70;23.10
24260;DHT22;12384;48.112;18.418;2023-04-03T11:18:39;21.70;22.80
24260;DHT22;12384;48.112;18.418;2023-04-03T11:21:14;21.60;22.50
24260;DHT22;12384;48.112;18.418;2023-04-03T11:23:46;21.50;22.60
24260;DHT22;12384;48.112;18.418;2023-04-03T11:26:18;21.40;22.90
24260;DHT22;12384;48.112;18.418;2023-04-03T11:28:53;21.40;23.10
24260;DHT22;12384;48.112;18.418;2023-04-03T11:31:38;21.50;23.00
24260;DHT22;12384;48.112;18.418;2023-04-03T11:34:24;21.50;23.00
24260;DHT22;12384;48.112;18.418;2023-04-03T11:36:59;21.50;23.00
24260;DHT22;12384;48.112;18.418;2023-04-03T11:39:30;21.50;22.70
24260;DHT22;12384;48.112;18.418;2023-04-03T11:42:14;21.50;22.50
24260;DHT22;12384;48.112;18.418;2023-04-03T11:44:44;21.40;22.60
24260;DHT22;12384;48.112;18.418;2023-04-03T11:47:45;21.30;22.40
24260;DHT22;12384;48.112;18.418;2023-04-03T11:50:39;21.20;22.30
24260;DHT22;12384;48.112;18.418;2023-04-03T11:53:43;21.10;22.30
24260;DHT22;12384;48.112;18.418;2023-04-03T11:56:29;20.90;22.60
24260;DHT22;12384;48.112;18.418;2023-04-03T11:59:23;20.90;22.90
24260;DHT22;12384;48.112;18.418;2023-04-03T12:01:53;21.00;23.00
24260;DHT22;12384;48.112;18.418;2023-04-03T12:04:24;21.00;23.00
24260;DHT22;12384;48.112;18.418;2023-04-03T12:07:02;21.10;23.30
24260;DHT22;12384;48.112;18.418;2023-04-03T12:10:20;21.30;23.30
24260;DHT22;12384;48.112;18.418;2023-04-03T12:13:00;21.50;22.60
24260;DHT22;12384;48.112;18.418;2023-04-03T12:15:50;21.60;22.70
24260;DHT22;12384;48.112;18.418;2023-04-03T12:18:57;21.80;22.40
24260;DHT22;12384;48.112;18.418;2023-04-03T12:22:07;22.00;22.20
24260;DHT22;12384;48.112;18.418;2023-04-03T12:24:37;22.20;22.10
24260;DHT22;12384;48.112;18.418;2023-04-03T12:27:32;22.30;22.00
24260;DHT22;12384;48.112;18.418;2023-04-03T12:30:15;22.40;21.50
24260;DHT22;12384;48.112;18.418;2023-04-03T12:33:04;22.40;21.70
24260;DHT22;12384;48.112;18.418;2023-04-03T12:35:47;22.50;21.60
24260;DHT22;12384;48.112;18.418;2023-04-03T12:38:53;22.50;21.70
24260;DHT22;12384;48.112;18.418;2023-04-03T12:41:33;22.60;21.00
24260;DHT22;12384;48.112;18.418;2023-04-03T12:44:22;22.50;20.70
24260;DHT22;12384;48.112;18.418;2023-04-03T12:46:54;22.50;20.60
24260;DHT22;12384;48.112;18.418;2023-04-03T12:49:35;22.40;20.70
24260;DHT22;12384;48.112;18.418;2023-04-03T12:52:06;22.30;20.30
24260;DHT22;12384;48.112;18.418;2023-04-03T12:54:46;22.20;20.60
24260;DHT22;12384;48.112;18.418;2023-04-03T12:57:18;22.20;20.80
24260;DHT22;12384;48.112;18.418;2023-04-03T12:59:48;22.10;20.80
24260;DHT22;12384;48.112;18.418;2023-04-03T13:02:23;22.10;20.80
24260;DHT22;12384;48.112;18.418;2023-04-03T13:04:54;22.10;20.70
24260;DHT22;12384;48.112;18.418;2023-04-03T13:07:28;22.10;20.70
24260;DHT22;12384;48.112;18.418;2023-04-03T13:10:02;22.10;20.20
24260;DHT22;12384;48.112;18.418;2023-04-03T13:12:33;22.00;20.20
24260;DHT22;12384;48.112;18.418;2023-04-03T13:15:15;21.90;20.50
24260;DHT22;12384;48.112;18.418;2023-04-03T13:17:45;21.90;20.10
24260;DHT22;12384;48.112;18.418;2023-04-03T13:20:21;21.90;20.00
24260;DHT22;12384;48.112;18.418;2023-04-03T13:22:56;21.80;20.20
24260;DHT22;12384;48.112;18.418;2023-04-03T13:25:29;21.80;20.30
24260;DHT22;12384;48.112;18.418;2023-04-03T13:28:00;21.70;20.50
24260;DHT22;12384;48.112;18.418;2023-04-03T13:30:54;21.80;20.30
24260;DHT22;12384;48.112;18.418;2023-04-03T13:33:25;21.80;20.70
24260;DHT22;12384;48.112;18.418;2023-04-03T13:35:56;21.90;20.50
24260;DHT22;12384;48.112;18.418;2023-04-03T13:38:28;21.90;20.00
24260;DHT22;12384;48.112;18.418;2023-04-03T13:41:01;22.00;19.90
24260;DHT22;12384;48.112;18.418;2023-04-03T13:43:33;21.90;19.80
24260;DHT22;12384;48.112;18.418;2023-04-03T13:46:20;21.90;19.80
24260;DHT22;12384;48.112;18.418;2023-04-03T13:48:52;21.90;19.50
24260;DHT22;12384;48.112;18.418;2023-04-03T13:51:23;21.80;19.50
24260;DHT22;12384;48.112;18.418;2023-04-03T13:53:54;21.80;19.50
24260;DHT22;12384;48.112;18.418;2023-04-03T13:56:32;21.70;19.70
24260;DHT22;12384;48.112;18.418;2023-04-03T13:59:05;21.70;19.70
24260;DHT22;12384;48.112;18.418;2023-04-03T14:01:42;21.60;19.30
24260;DHT22;12384;48.112;18.418;2023-04-03T14:04:16;21.50;19.30
24260;DHT22;12384;48.112;18.418;2023-04-03T14:06:46;21.30;19.10
24260;DHT22;12384;48.112;18.418;2023-04-03T14:09:17;21.20;19.40
24260;DHT22;12384;48.112;18.418;2023-04-03T14:11:46;21.10;19.30
24260;DHT22;12384;48.112;18.418;2023-04-03T14:14:18;21.00;19.30
24260;DHT22;12384;48.112;18.418;2023-04-03T14:16:52;20.90;19.40
24260;DHT22;12384;48.112;18.418;2023-04-03T14:19:23;20.80;19.50
24260;DHT22;12384;48.112;18.418;2023-04-03T14:21:53;20.80;19.50
24260;DHT22;12384;48.112;18.418;2023-04-03T14:24:23;20.70;19.40
24260;DHT22;12384;48.112;18.418;2023-04-03T14:26:53;20.60;19.40
24260;DHT22;12384;48.112;18.418;2023-04-03T14:29:22;20.60;19.50
24260;DHT22;12384;48.112;18.418;2023-04-03T14:31:52;20.50;19.50
24260;DHT22;12384;48.112;18.418;2023-04-03T14:34:33;20.40;19.50
24260;DHT22;12384;48.112;18.418;2023-04-03T14:37:04;20.20;19.40
24260;DHT22;12384;48.112;18.418;2023-04-03T14:39:33;20.00;19.20
24260;DHT22;12384;48.112;18.418;2023-04-03T14:42:01;19.60;18.80
24260;DHT22;12384;48.112;18.418;2023-04-03T14:44:29;19.10;18.80
24260;DHT22;12384;48.112;18.418;2023-04-03T14:46:59;18.40;18.90
24260;DHT22;12384;48.112;18.418;2023-04-03T14:49:28;17.70;19.10
24260;DHT22;12384;48.112;18.418;2023-04-03T14:51:57;17.00;19.40
24260;DHT22;12384;48.112;18.418;2023-04-03T14:54:26;16.40;19.60
24260;DHT22;12384;48.112;18.418;2023-04-03T14:56:57;15.70;20.00
24260;DHT22;12384;48.112;18.418;2023-04-03T14:59:27;15.10;20.50
24260;DHT22;12384;48.112;18.418;2023-04-03T15:01:56;14.50;20.80
24260;DHT22;12384;48.112;18.418;2023-04-03T15:04:27;14.10;21.40
24260;DHT22;12384;48.112;18.418;2023-04-03T15:06:55;13.60;21.90
24260;DHT22;12384;48.112;18.418;2023-04-03T15:09:26;13.20;22.30
24260;DHT22;12384;48.112;18.418;2023-04-03T15:11:56;12.90;22.50
24260;DHT22;12384;48.112;18.418;2023-04-03T15:14:24;12.50;22.90
24260;DHT22;12384;48.112;18.418;2023-04-03T15:17:04;12.30;23.40
24260;DHT22;12384;48.112;18.418;2023-04-03T15:19:37;12.00;23.70
24260;DHT22;12384;48.112;18.418;2023-04-03T15:22:06;11.70;23.80
24260;DHT22;12384;48.112;18.418;2023-04-03T15:24:34;11.50;24.00
24260;DHT22;12384;48.112;18.418;2023-04-03T15:27:03;11.20;24.10
24260;DHT22;12384;48.112;18.418;2023-04-03T15:29:31;11.00;24.30
24260;DHT22;12384;48.112;18.418;2023-04-03T15:32:00;10.80;24.60
24260;DHT22;12384;48.112;18.418;2023-04-03T15:34:29;10.60;24.80
24260;DHT22;12384;48.112;18.418;2023-04-03T15:36:59;10.50;25.20
24260;DHT22;12384;48.112;18.418;2023-04-03T15:39:28;10.30;25.20
24260;DHT22;12384;48.112;18.418;2023-04-03T15:41:56;10.10;25.60
24260;DHT22;12384;48.112;18.418;2023-04-03T15:44:31;10.00;25.80
24260;DHT22;12384;48.112;18.418;2023-04-03T15:47:00;9.80;26.50
24260;DHT22;12384;48.112;18.418;2023-04-03T15:49:28;9.70;26.70
24260;DHT22;12384;48.112;18.418;2023-04-03T15:51:59;9.60;26.90
24260;DHT22;12384;48.112;18.418;2023-04-03T15:54:28;9.40;27.10
24260;DHT22;12384;48.112;18.418;2023-04-03T15:56:57;9.30;27.30
24260;DHT22;12384;48.112;18.418;2023-04-03T15:59:26;9.20;27.50